sensor_id;sensor_type;location;lat;lon;timestamp;temperature;humidity
40454;DHT22;26160;51.858;4.398;2024-01-27T00:00:11;3.90;99.90
40454;DHT22;26160;51.858;4.398;2024-01-27T00:02:40;3.80;99.90
40454;DHT22;26160;51.858;4.398;2024-01-27T00:05:10;3.80;99.90
40454;DHT22;26160;51.858;4.398;2024-01-27T00:07:38;3.70;99.90
40454;DHT22;26160;51.858;4.398;2024-01-27T00:10:14;3.70;99.90
40454;DHT22;26160;51.858;4.398;2024-01-27T00:12:48;3.80;99.90
40454;DHT22;26160;51.858;4.398;2024-01-27T00:15:17;3.80;99.90
40454;DHT22;26160;51.858;4.398;2024-01-27T00:17:48;3.80;99.90
40454;DHT22;26160;51.858;4.398;2024-01-27T00:20:15;3.70;99.90
40454;DHT22;26160;51.858;4.398;2024-01-27T00:22:44;3.70;99.90
40454;DHT22;26160;51.858;4.398;2024-01-27T00:25:11;3.60;99.90
40454;DHT22;26160;51.858;4.398;2024-01-27T00:27:40;3.60;99.90
40454;DHT22;26160;51.858;4.398;2024-01-27T00:30:13;3.50;99.90
40454;DHT22;26160;51.858;4.398;2024-01-27T00:32:41;3.50;99.90
40454;DHT22;26160;51.858;4.398;2024-01-27T00:35:08;3.50;99.90
40454;DHT22;26160;51.858;4.398;2024-01-27T00:37:37;3.40;99.90
40454;DHT22;26160;51.858;4.398;2024-01-27T00:40:08;3.40;99.90
40454;DHT22;26160;51.858;4.398;2024-01-27T00:42:36;3.40;99.90
40454;DHT22;26160;51.858;4.398;2024-01-27T00:45:05;3.30;99.90
40454;DHT22;26160;51.858;4.398;2024-01-27T00:47:34;3.30;99.90
40454;DHT22;26160;51.858;4.398;2024-01-27T00:50:03;3.30;99.90
40454;DHT22;26160;51.858;4.398;2024-01-27T00:52:30;3.30;99.90
40454;DHT22;26160;51.858;4.398;2024-01-27T00:54:58;3.30;99.90
40454;DHT22;26160;51.858;4.398;2024-01-27T00:57:25;3.30;99.90
40454;DHT22;26160;51.858;4.398;2024-01-27T00:59:52;3.20;99.90
40454;DHT22;26160;51.858;4.398;2024-01-27T01:02:20;3.20;99.90
40454;DHT22;26160;51.858;4.398;2024-01-27T01:04:53;3.10;99.90
40454;DHT22;26160;51.858;4.398;2024-01-27T01:07:22;3.10;99.90
40454;DHT22;26160;51.858;4.398;2024-01-27T01:09:50;3.00;99.90
40454;DHT22;26160;51.858;4.398;2024-01-27T01:12:18;3.00;99.90
40454;DHT22;26160;51.858;4.398;2024-01-27T01:14:44;3.00;99.90
40454;DHT22;26160;51.858;4.398;2024-01-27T01:17:14;3.10;99.90
40454;DHT22;26160;51.858;4.398;2024-01-27T01:19:41;3.00;99.90
40454;DHT22;26160;51.858;4.398;2024-01-27T01:22:10;2.90;99.90
40454;DHT22;26160;51.858;4.398;2024-01-27T01:24:42;2.90;99.90
40454;DHT22;26160;51.858;4.398;2024-01-27T01:27:09;3.00;99.90
40454;DHT22;26160;51.858;4.398;2024-01-27T01:30:00;3.00;99.90
40454;DHT22;26160;51.858;4.398;2024-01-27T01:32:27;3.10;99.90
40454;DHT22;26160;51.858;4.398;2024-01-27T01:34:55;3.00;99.90
40454;DHT22;26160;51.858;4.398;2024-01-27T01:37:24;3.00;99.90
40454;DHT22;26160;51.858;4.398;2024-01-27T01:39:52;2.90;99.90
40454;DHT22;26160;51.858;4.398;2024-01-27T01:42:22;2.80;99.90
40454;DHT22;26160;51.858;4.398;2024-01-27T01:44:52;2.80;99.90
40454;DHT22;26160;51.858;4.398;2024-01-27T01:47:20;2.70;99.90
40454;DHT22;26160;51.858;4.398;2024-01-27T01:49:49;2.60;99.90
40454;DHT22;26160;51.858;4.398;2024-01-27T01:52:17;2.70;99.90
40454;DHT22;26160;51.858;4.398;2024-01-27T01:54:49;2.70;99.90
40454;DHT22;26160;51.858;4.398;2024-01-27T01:57:38;2.70;99.90
40454;DHT22;26160;51.858;4.398;2024-01-27T02:00:12;2.70;99.90
40454;DHT22;26160;51.858;4.398;2024-01-27T02:02:38;2.70;99.90
40454;DHT22;26160;51.858;4.398;2024-01-27T02:05:05;2.70;99.90
40454;DHT22;26160;51.858;4.398;2024-01-27T02:07:31;2.70;99.90
40454;DHT22;26160;51.858;4.398;2024-01-27T02:09:57;2.70;99.90
40454;DHT22;26160;51.858;4.398;2024-01-27T02:12:23;2.60;99.90
40454;DHT22;26160;51.858;4.398;2024-01-27T02:14:50;2.60;99.90
40454;DHT22;26160;51.858;4.398;2024-01-27T02:17:16;2.50;99.90
40454;DHT22;26160;51.858;4.398;2024-01-27T02:19:42;2.50;99.90
40454;DHT22;26160;51.858;4.398;2024-01-27T02:22:08;2.50;99.90
40454;DHT22;26160;51.858;4.398;2024-01-27T02:24:34;2.40;99.90
40454;DHT22;26160;51.858;4.398;2024-01-27T02:27:00;2.40;99.90
40454;DHT22;26160;51.858;4.398;2024-01-27T02:29:26;2.30;99.90
40454;DHT22;26160;51.858;4.398;2024-01-27T02:31:54;2.20;99.90
40454;DHT22;26160;51.858;4.398;2024-01-27T02:34:20;2.20;99.90
40454;DHT22;26160;51.858;4.398;2024-01-27T02:36:47;2.10;99.90
40454;DHT22;26160;51.858;4.398;2024-01-27T02:39:13;2.10;99.90
40454;DHT22;26160;51.858;4.398;2024-01-27T02:41:39;2.00;99.90
40454;DHT22;26160;51.858;4.398;2024-01-27T02:44:05;2.00;99.90
40454;DHT22;26160;51.858;4.398;2024-01-27T02:46:32;2.00;99.90
40454;DHT22;26160;51.858;4.398;2024-01-27T02:48:58;1.90;99.90
40454;DHT22;26160;51.858;4.398;2024-01-27T02:51:24;2.00;99.90
40454;DHT22;26160;51.858;4.398;2024-01-27T02:53:50;2.20;99.90
40454;DHT22;26160;51.858;4.398;2024-01-27T02:56:16;2.40;99.90
40454;DHT22;26160;51.858;4.398;2024-01-27T02:58:43;2.40;99.90
40454;DHT22;26160;51.858;4.398;2024-01-27T03:01:09;2.30;99.90
40454;DHT22;26160;51.858;4.398;2024-01-27T03:03:35;2.20;99.90
40454;DHT22;26160;51.858;4.398;2024-01-27T03:06:01;2.10;99.90
40454;DHT22;26160;51.858;4.398;2024-01-27T03:08:28;2.00;99.90
40454;DHT22;26160;51.858;4.398;2024-01-27T03:10:54;2.00;99.90
40454;DHT22;26160;51.858;4.398;2024-01-27T03:13:20;2.00;99.90
40454;DHT22;26160;51.858;4.398;2024-01-27T03:15:47;2.00;99.90
40454;DHT22;26160;51.858;4.398;2024-01-27T03:18:13;2.10;99.90
40454;DHT22;26160;51.858;4.398;2024-01-27T03:20:39;2.00;99.90
40454;DHT22;26160;51.858;4.398;2024-01-27T03:23:05;2.00;99.90
40454;DHT22;26160;51.858;4.398;2024-01-27T03:25:31;2.00;99.90
40454;DHT22;26160;51.858;4.398;2024-01-27T03:27:57;2.00;99.90
40454;DHT22;26160;51.858;4.398;2024-01-27T03:30:23;2.00;99.90
40454;DHT22;26160;51.858;4.398;2024-01-27T03:32:49;2.30;99.90
40454;DHT22;26160;51.858;4.398;2024-01-27T03:35:15;2.50;99.90
40454;DHT22;26160;51.858;4.398;2024-01-27T03:37:42;2.60;99.90
40454;DHT22;26160;51.858;4.398;2024-01-27T03:40:09;2.50;99.90
40454;DHT22;26160;51.858;4.398;2024-01-27T03:42:35;2.50;99.90
40454;DHT22;26160;51.858;4.398;2024-01-27T03:45:01;2.40;99.90
40454;DHT22;26160;51.858;4.398;2024-01-27T03:47:27;2.40;99.90
40454;DHT22;26160;51.858;4.398;2024-01-27T03:49:53;2.30;99.90
40454;DHT22;26160;51.858;4.398;2024-01-27T03:52:20;2.20;99.90
40454;DHT22;26160;51.858;4.398;2024-01-27T03:54:46;2.20;99.90
40454;DHT22;26160;51.858;4.398;2024-01-27T03:57:12;2.20;99.90
40454;DHT22;26160;51.858;4.398;2024-01-27T03:59:40;2.30;99.90
40454;DHT22;26160;51.858;4.398;2024-01-27T04:02:07;2.20;99.90
40454;DHT22;26160;51.858;4.398;2024-01-27T04:04:33;2.10;99.90
40454;DHT22;26160;51.858;4.398;2024-01-27T04:06:59;2.00;99.90
40454;DHT22;26160;51.858;4.398;2024-01-27T04:09:27;2.10;99.90
40454;DHT22;26160;51.858;4.398;2024-01-27T04:11:53;2.30;99.90
40454;DHT22;26160;51.858;4.398;2024-01-27T04:14:20;2.30;99.90
40454;DHT22;26160;51.858;4.398;2024-01-27T04:16:46;2.30;99.90
40454;DHT22;26160;51.858;4.398;2024-01-27T04:19:12;2.20;99.90
40454;DHT22;26160;51.858;4.398;2024-01-27T04:21:38;2.10;99.90
40454;DHT22;26160;51.858;4.398;2024-01-27T04:24:04;2.10;99.90
40454;DHT22;26160;51.858;4.398;2024-01-27T04:26:31;2.10;99.90
40454;DHT22;26160;51.858;4.398;2024-01-27T04:28:57;2.20;99.90
40454;DHT22;26160;51.858;4.398;2024-01-27T04:31:23;2.30;99.90
40454;DHT22;26160;51.858;4.398;2024-01-27T04:33:49;2.30;99.90
40454;DHT22;26160;51.858;4.398;2024-01-27T04:36:27;2.10;99.90
40454;DHT22;26160;51.858;4.398;2024-01-27T04:38:55;2.10;99.90
40454;DHT22;26160;51.858;4.398;2024-01-27T04:41:21;2.10;99.90
40454;DHT22;26160;51.858;4.398;2024-01-27T04:43:47;2.10;99.90
40454;DHT22;26160;51.858;4.398;2024-01-27T04:46:13;2.20;99.90
40454;DHT22;26160;51.858;4.398;2024-01-27T04:48:39;2.20;99.90
40454;DHT22;26160;51.858;4.398;2024-01-27T04:51:05;2.30;99.90
40454;DHT22;26160;51.858;4.398;2024-01-27T04:53:31;2.30;99.90
40454;DHT22;26160;51.858;4.398;2024-01-27T04:55:58;2.20;99.90
40454;DHT22;26160;51.858;4.398;2024-01-27T04:58:24;2.20;99.90
40454;DHT22;26160;51.858;4.398;2024-01-27T05:00:50;2.10;99.90
40454;DHT22;26160;51.858;4.398;2024-01-27T05:03:16;2.20;99.90
40454;DHT22;26160;51.858;4.398;2024-01-27T05:05:43;2.30;99.90
40454;DHT22;26160;51.858;4.398;2024-01-27T05:08:09;2.30;99.90
40454;DHT22;26160;51.858;4.398;2024-01-27T05:10:36;2.30;99.90
40454;DHT22;26160;51.858;4.398;2024-01-27T05:13:02;2.20;99.90
40454;DHT22;26160;51.858;4.398;2024-01-27T05:15:28;2.20;99.90
40454;DHT22;26160;51.858;4.398;2024-01-27T05:17:56;2.30;99.90
40454;DHT22;26160;51.858;4.398;2024-01-27T05:20:22;2.20;99.90
40454;DHT22;26160;51.858;4.398;2024-01-27T05:22:48;2.30;99.90
40454;DHT22;26160;51.858;4.398;2024-01-27T05:25:14;2.30;99.90
40454;DHT22;26160;51.858;4.398;2024-01-27T05:27:42;2.40;99.90
40454;DHT22;26160;51.858;4.398;2024-01-27T05:30:08;2.40;99.90
40454;DHT22;26160;51.858;4.398;2024-01-27T05:32:35;2.40;99.90
40454;DHT22;26160;51.858;4.398;2024-01-27T05:35:01;2.40;99.90
40454;DHT22;26160;51.858;4.398;2024-01-27T05:37:27;2.30;99.90
40454;DHT22;26160;51.858;4.398;2024-01-27T05:39:53;2.20;99.90
40454;DHT22;26160;51.858;4.398;2024-01-27T05:42:19;2.10;99.90
40454;DHT22;26160;51.858;4.398;2024-01-27T05:44:45;2.20;99.90
40454;DHT22;26160;51.858;4.398;2024-01-27T05:47:11;2.20;99.90
40454;DHT22;26160;51.858;4.398;2024-01-27T05:49:37;2.30;99.90
40454;DHT22;26160;51.858;4.398;2024-01-27T05:52:04;2.40;99.90
40454;DHT22;26160;51.858;4.398;2024-01-27T05:54:30;2.30;99.90
40454;DHT22;26160;51.858;4.398;2024-01-27T05:56:56;2.30;99.90
40454;DHT22;26160;51.858;4.398;2024-01-27T05:59:22;2.20;99.90
40454;DHT22;26160;51.858;4.398;2024-01-27T06:01:48;2.20;99.90
40454;DHT22;26160;51.858;4.398;2024-01-27T06:04:14;2.20;99.90
40454;DHT22;26160;51.858;4.398;2024-01-27T06:06:41;2.30;99.90
40454;DHT22;26160;51.858;4.398;2024-01-27T06:09:07;2.20;99.90
40454;DHT22;26160;51.858;4.398;2024-01-27T06:11:37;2.20;99.90
40454;DHT22;26160;51.858;4.398;2024-01-27T06:14:03;2.30;99.90
40454;DHT22;26160;51.858;4.398;2024-01-27T06:16:30;2.20;99.90
40454;DHT22;26160;51.858;4.398;2024-01-27T06:18:56;2.20;99.90
40454;DHT22;26160;51.858;4.398;2024-01-27T06:21:22;2.30;99.90
40454;DHT22;26160;51.858;4.398;2024-01-27T06:23:48;2.30;99.90
40454;DHT22;26160;51.858;4.398;2024-01-27T06:26:14;2.10;99.90
40454;DHT22;26160;51.858;4.398;2024-01-27T06:28:40;2.10;99.90
40454;DHT22;26160;51.858;4.398;2024-01-27T06:31:07;2.00;99.90
40454;DHT22;26160;51.858;4.398;2024-01-27T06:33:35;2.00;99.90
40454;DHT22;26160;51.858;4.398;2024-01-27T06:36:01;2.00;99.90
40454;DHT22;26160;51.858;4.398;2024-01-27T06:38:28;2.10;99.90
40454;DHT22;26160;51.858;4.398;2024-01-27T06:40:54;2.10;99.90
40454;DHT22;26160;51.858;4.398;2024-01-27T06:43:20;2.20;99.90
40454;DHT22;26160;51.858;4.398;2024-01-27T06:45:46;2.20;99.90
40454;DHT22;26160;51.858;4.398;2024-01-27T06:48:12;2.20;99.90
40454;DHT22;26160;51.858;4.398;2024-01-27T06:50:38;2.20;99.90
40454;DHT22;26160;51.858;4.398;2024-01-27T06:53:05;2.10;99.90
40454;DHT22;26160;51.858;4.398;2024-01-27T06:55:31;2.10;99.90
40454;DHT22;26160;51.858;4.398;2024-01-27T06:57:57;1.90;99.90
40454;DHT22;26160;51.858;4.398;2024-01-27T07:00:23;2.00;99.90
40454;DHT22;26160;51.858;4.398;2024-01-27T07:02:49;1.90;99.90
40454;DHT22;26160;51.858;4.398;2024-01-27T07:05:15;2.00;99.90
40454;DHT22;26160;51.858;4.398;2024-01-27T07:07:42;2.00;99.90
40454;DHT22;26160;51.858;4.398;2024-01-27T07:10:08;2.10;99.90
40454;DHT22;26160;51.858;4.398;2024-01-27T07:12:35;2.10;99.90
40454;DHT22;26160;51.858;4.398;2024-01-27T07:15:02;2.00;99.90
40454;DHT22;26160;51.858;4.398;2024-01-27T07:17:32;1.90;99.90
40454;DHT22;26160;51.858;4.398;2024-01-27T07:19:58;1.90;99.90
40454;DHT22;26160;51.858;4.398;2024-01-27T07:22:24;1.90;99.90
40454;DHT22;26160;51.858;4.398;2024-01-27T07:24:51;1.90;99.90
40454;DHT22;26160;51.858;4.398;2024-01-27T07:27:17;1.90;99.90
40454;DHT22;26160;51.858;4.398;2024-01-27T07:29:44;2.00;99.90
40454;DHT22;26160;51.858;4.398;2024-01-27T07:32:10;2.10;99.90
40454;DHT22;26160;51.858;4.398;2024-01-27T07:34:43;2.10;99.90
40454;DHT22;26160;51.858;4.398;2024-01-27T07:37:09;2.10;99.90
40454;DHT22;26160;51.858;4.398;2024-01-27T07:39:35;2.00;99.90
40454;DHT22;26160;51.858;4.398;2024-01-27T07:42:01;2.00;99.90
40454;DHT22;26160;51.858;4.398;2024-01-27T07:44:28;2.00;99.90
40454;DHT22;26160;51.858;4.398;2024-01-27T07:46:54;2.10;99.90
40454;DHT22;26160;51.858;4.398;2024-01-27T07:49:20;2.10;99.90
40454;DHT22;26160;51.858;4.398;2024-01-27T07:51:46;2.20;99.90
40454;DHT22;26160;51.858;4.398;2024-01-27T07:54:12;2.20;99.90
40454;DHT22;26160;51.858;4.398;2024-01-27T07:56:39;2.20;99.90
40454;DHT22;26160;51.858;4.398;2024-01-27T07:59:07;2.10;99.90
40454;DHT22;26160;51.858;4.398;2024-01-27T08:01:40;2.00;99.90
40454;DHT22;26160;51.858;4.398;2024-01-27T08:04:06;2.00;99.90
40454;DHT22;26160;51.858;4.398;2024-01-27T08:06:32;1.90;99.90
40454;DHT22;26160;51.858;4.398;2024-01-27T08:08:58;1.90;99.90
40454;DHT22;26160;51.858;4.398;2024-01-27T08:11:25;2.00;99.90
40454;DHT22;26160;51.858;4.398;2024-01-27T08:13:51;2.10;99.90
40454;DHT22;26160;51.858;4.398;2024-01-27T08:16:18;2.20;99.90
40454;DHT22;26160;51.858;4.398;2024-01-27T08:18:44;2.10;99.90
40454;DHT22;26160;51.858;4.398;2024-01-27T08:21:10;2.20;99.90
40454;DHT22;26160;51.858;4.398;2024-01-27T08:23:37;2.20;99.90
40454;DHT22;26160;51.858;4.398;2024-01-27T08:26:03;2.20;99.90
40454;DHT22;26160;51.858;4.398;2024-01-27T08:28:30;2.30;99.90
40454;DHT22;26160;51.858;4.398;2024-01-27T08:30:56;2.40;99.90
40454;DHT22;26160;51.858;4.398;2024-01-27T08:33:22;2.50;99.90
40454;DHT22;26160;51.858;4.398;2024-01-27T08:35:48;2.50;99.90
40454;DHT22;26160;51.858;4.398;2024-01-27T08:38:14;2.60;99.90
40454;DHT22;26160;51.858;4.398;2024-01-27T08:40:41;2.60;99.90
40454;DHT22;26160;51.858;4.398;2024-01-27T08:43:07;2.60;99.90
40454;DHT22;26160;51.858;4.398;2024-01-27T08:45:33;2.70;99.90
40454;DHT22;26160;51.858;4.398;2024-01-27T08:47:59;2.70;99.90
40454;DHT22;26160;51.858;4.398;2024-01-27T08:50:25;2.80;99.90
40454;DHT22;26160;51.858;4.398;2024-01-27T08:52:51;2.80;99.90
40454;DHT22;26160;51.858;4.398;2024-01-27T08:55:17;2.90;99.90
40454;DHT22;26160;51.858;4.398;2024-01-27T08:57:46;2.90;99.90
40454;DHT22;26160;51.858;4.398;2024-01-27T09:00:13;3.00;99.90
40454;DHT22;26160;51.858;4.398;2024-01-27T09:02:39;3.00;99.90
40454;DHT22;26160;51.858;4.398;2024-01-27T09:05:05;3.00;99.90
40454;DHT22;26160;51.858;4.398;2024-01-27T09:07:31;3.10;99.90
40454;DHT22;26160;51.858;4.398;2024-01-27T09:09:58;3.10;99.90
40454;DHT22;26160;51.858;4.398;2024-01-27T09:12:24;3.10;99.90
40454;DHT22;26160;51.858;4.398;2024-01-27T09:14:50;3.10;99.90
40454;DHT22;26160;51.858;4.398;2024-01-27T09:17:16;3.20;99.90
40454;DHT22;26160;51.858;4.398;2024-01-27T09:19:45;3.20;99.90
40454;DHT22;26160;51.858;4.398;2024-01-27T09:22:11;3.30;99.90
40454;DHT22;26160;51.858;4.398;2024-01-27T09:24:37;3.30;99.90
40454;DHT22;26160;51.858;4.398;2024-01-27T09:27:04;3.30;99.90
40454;DHT22;26160;51.858;4.398;2024-01-27T09:29:30;3.40;99.90
40454;DHT22;26160;51.858;4.398;2024-01-27T09:31:56;3.40;99.90
40454;DHT22;26160;51.858;4.398;2024-01-27T09:34:22;3.50;99.90
40454;DHT22;26160;51.858;4.398;2024-01-27T09:36:48;3.50;99.90
40454;DHT22;26160;51.858;4.398;2024-01-27T09:39:14;3.60;99.90
40454;DHT22;26160;51.858;4.398;2024-01-27T09:41:41;3.70;99.90
40454;DHT22;26160;51.858;4.398;2024-01-27T09:44:11;3.80;99.90
40454;DHT22;26160;51.858;4.398;2024-01-27T09:46:38;3.90;99.90
40454;DHT22;26160;51.858;4.398;2024-01-27T09:49:05;4.00;99.90
40454;DHT22;26160;51.858;4.398;2024-01-27T09:51:32;4.00;99.90
40454;DHT22;26160;51.858;4.398;2024-01-27T09:53:58;4.10;99.90
40454;DHT22;26160;51.858;4.398;2024-01-27T09:56:24;4.20;99.90
40454;DHT22;26160;51.858;4.398;2024-01-27T09:58:50;4.20;99.90
40454;DHT22;26160;51.858;4.398;2024-01-27T10:01:21;4.30;99.90
40454;DHT22;26160;51.858;4.398;2024-01-27T10:03:50;4.30;99.90
40454;DHT22;26160;51.858;4.398;2024-01-27T10:06:16;4.30;99.90
40454;DHT22;26160;51.858;4.398;2024-01-27T10:08:53;4.40;99.90
40454;DHT22;26160;51.858;4.398;2024-01-27T10:11:20;4.40;99.90
40454;DHT22;26160;51.858;4.398;2024-01-27T10:13:54;4.50;99.90
40454;DHT22;26160;51.858;4.398;2024-01-27T10:16:22;4.60;99.90
40454;DHT22;26160;51.858;4.398;2024-01-27T10:18:59;4.60;99.90
40454;DHT22;26160;51.858;4.398;2024-01-27T10:21:26;4.70;99.90
40454;DHT22;26160;51.858;4.398;2024-01-27T10:24:12;4.70;99.90
40454;DHT22;26160;51.858;4.398;2024-01-27T10:29:16;4.70;99.90
40454;DHT22;26160;51.858;4.398;2024-01-27T10:31:45;4.80;99.90
40454;DHT22;26160;51.858;4.398;2024-01-27T10:34:11;4.90;99.90
40454;DHT22;26160;51.858;4.398;2024-01-27T10:36:42;5.00;99.90
40454;DHT22;26160;51.858;4.398;2024-01-27T10:39:22;5.00;99.90
40454;DHT22;26160;51.858;4.398;2024-01-27T10:41:49;5.10;99.90
40454;DHT22;26160;51.858;4.398;2024-01-27T10:44:17;5.20;99.90
40454;DHT22;26160;51.858;4.398;2024-01-27T10:46:48;5.20;99.90
40454;DHT22;26160;51.858;4.398;2024-01-27T10:49:16;5.20;99.90
40454;DHT22;26160;51.858;4.398;2024-01-27T10:51:53;5.30;99.90
40454;DHT22;26160;51.858;4.398;2024-01-27T10:54:27;5.40;99.90
40454;DHT22;26160;51.858;4.398;2024-01-27T10:56:55;5.40;99.90
40454;DHT22;26160;51.858;4.398;2024-01-27T10:59:22;5.50;99.90
40454;DHT22;26160;51.858;4.398;2024-01-27T11:01:52;5.50;99.90
40454;DHT22;26160;51.858;4.398;2024-01-27T11:04:20;5.50;99.90
40454;DHT22;26160;51.858;4.398;2024-01-27T11:06:50;5.60;99.90
40454;DHT22;26160;51.858;4.398;2024-01-27T11:09:18;5.60;99.90
40454;DHT22;26160;51.858;4.398;2024-01-27T11:11:45;5.70;99.90
40454;DHT22;26160;51.858;4.398;2024-01-27T11:14:12;5.70;99.90
40454;DHT22;26160;51.858;4.398;2024-01-27T11:16:39;5.80;99.90
40454;DHT22;26160;51.858;4.398;2024-01-27T11:19:11;5.80;99.90
40454;DHT22;26160;51.858;4.398;2024-01-27T11:21:37;5.90;99.90
40454;DHT22;26160;51.858;4.398;2024-01-27T11:24:16;6.00;99.90
40454;DHT22;26160;51.858;4.398;2024-01-27T11:26:44;6.00;99.90
40454;DHT22;26160;51.858;4.398;2024-01-27T11:29:13;6.00;99.90
40454;DHT22;26160;51.858;4.398;2024-01-27T11:31:45;6.00;99.90
40454;DHT22;26160;51.858;4.398;2024-01-27T11:34:12;6.00;99.90
40454;DHT22;26160;51.858;4.398;2024-01-27T11:36:38;6.10;99.90
40454;DHT22;26160;51.858;4.398;2024-01-27T11:39:04;6.20;99.90
40454;DHT22;26160;51.858;4.398;2024-01-27T11:41:31;6.30;99.90
40454;DHT22;26160;51.858;4.398;2024-01-27T11:43:58;6.30;99.90
40454;DHT22;26160;51.858;4.398;2024-01-27T11:46:27;6.40;99.90
40454;DHT22;26160;51.858;4.398;2024-01-27T11:48:54;6.40;99.90
40454;DHT22;26160;51.858;4.398;2024-01-27T11:51:20;6.40;99.90
40454;DHT22;26160;51.858;4.398;2024-01-27T11:53:46;6.50;99.90
40454;DHT22;26160;51.858;4.398;2024-01-27T11:56:18;6.50;99.90
40454;DHT22;26160;51.858;4.398;2024-01-27T11:58:48;6.70;99.90
40454;DHT22;26160;51.858;4.398;2024-01-27T12:01:16;6.80;99.90
40454;DHT22;26160;51.858;4.398;2024-01-27T12:03:42;6.90;99.90
40454;DHT22;26160;51.858;4.398;2024-01-27T12:06:09;6.90;99.90
40454;DHT22;26160;51.858;4.398;2024-01-27T12:08:35;7.00;99.90
40454;DHT22;26160;51.858;4.398;2024-01-27T12:11:02;7.00;99.90
40454;DHT22;26160;51.858;4.398;2024-01-27T12:13:28;7.10;99.90
40454;DHT22;26160;51.858;4.398;2024-01-27T12:15:54;7.20;99.90
40454;DHT22;26160;51.858;4.398;2024-01-27T12:18:21;7.20;99.90
40454;DHT22;26160;51.858;4.398;2024-01-27T12:20:47;7.20;99.90
40454;DHT22;26160;51.858;4.398;2024-01-27T12:23:14;7.30;99.90
40454;DHT22;26160;51.858;4.398;2024-01-27T12:25:42;7.30;99.90
40454;DHT22;26160;51.858;4.398;2024-01-27T12:28:18;7.30;99.90
40454;DHT22;26160;51.858;4.398;2024-01-27T12:30:45;7.30;99.90
40454;DHT22;26160;51.858;4.398;2024-01-27T12:33:12;7.40;99.90
40454;DHT22;26160;51.858;4.398;2024-01-27T12:35:39;7.30;99.90
40454;DHT22;26160;51.858;4.398;2024-01-27T12:38:08;7.30;99.90
40454;DHT22;26160;51.858;4.398;2024-01-27T12:40:35;7.30;99.90
40454;DHT22;26160;51.858;4.398;2024-01-27T12:43:03;7.30;99.90
40454;DHT22;26160;51.858;4.398;2024-01-27T12:45:29;7.40;99.90
40454;DHT22;26160;51.858;4.398;2024-01-27T12:47:56;7.40;99.90
40454;DHT22;26160;51.858;4.398;2024-01-27T12:50:22;7.50;99.90
40454;DHT22;26160;51.858;4.398;2024-01-27T12:52:48;7.60;99.90
40454;DHT22;26160;51.858;4.398;2024-01-27T12:55:14;7.60;99.90
40454;DHT22;26160;51.858;4.398;2024-01-27T12:57:40;7.60;99.90
40454;DHT22;26160;51.858;4.398;2024-01-27T13:00:10;7.60;99.90
40454;DHT22;26160;51.858;4.398;2024-01-27T13:02:36;7.60;99.90
40454;DHT22;26160;51.858;4.398;2024-01-27T13:05:04;7.70;99.90
40454;DHT22;26160;51.858;4.398;2024-01-27T13:07:30;7.60;99.90
40454;DHT22;26160;51.858;4.398;2024-01-27T13:09:57;7.60;99.90
40454;DHT22;26160;51.858;4.398;2024-01-27T13:12:23;7.60;99.90
40454;DHT22;26160;51.858;4.398;2024-01-27T13:14:50;7.50;99.90
40454;DHT22;26160;51.858;4.398;2024-01-27T13:17:16;7.50;99.90
40454;DHT22;26160;51.858;4.398;2024-01-27T13:19:43;7.50;99.90
40454;DHT22;26160;51.858;4.398;2024-01-27T13:24:50;7.60;99.90
40454;DHT22;26160;51.858;4.398;2024-01-27T13:27:22;7.50;99.90
40454;DHT22;26160;51.858;4.398;2024-01-27T13:29:50;7.50;99.90
40454;DHT22;26160;51.858;4.398;2024-01-27T13:32:44;7.40;99.90
40454;DHT22;26160;51.858;4.398;2024-01-27T13:35:23;7.40;99.90
40454;DHT22;26160;51.858;4.398;2024-01-27T13:37:59;7.30;99.90
40454;DHT22;26160;51.858;4.398;2024-01-27T13:40:56;7.40;99.90
40454;DHT22;26160;51.858;4.398;2024-01-27T13:43:28;7.40;99.90
40454;DHT22;26160;51.858;4.398;2024-01-27T13:45:54;7.40;99.90
40454;DHT22;26160;51.858;4.398;2024-01-27T13:48:40;7.40;99.90
40454;DHT22;26160;51.858;4.398;2024-01-27T13:51:30;7.30;99.90
40454;DHT22;26160;51.858;4.398;2024-01-27T13:54:00;7.30;99.90
40454;DHT22;26160;51.858;4.398;2024-01-27T13:56:37;7.20;99.90
40454;DHT22;26160;51.858;4.398;2024-01-27T13:59:04;7.30;99.90
40454;DHT22;26160;51.858;4.398;2024-01-27T14:01:32;7.20;99.90
40454;DHT22;26160;51.858;4.398;2024-01-27T14:03:59;7.20;99.90
40454;DHT22;26160;51.858;4.398;2024-01-27T14:06:25;7.20;99.90
40454;DHT22;26160;51.858;4.398;2024-01-27T14:08:51;7.20;99.90
40454;DHT22;26160;51.858;4.398;2024-01-27T14:11:17;7.20;99.90
40454;DHT22;26160;51.858;4.398;2024-01-27T14:13:47;7.20;99.90
40454;DHT22;26160;51.858;4.398;2024-01-27T14:16:13;7.20;99.90
40454;DHT22;26160;51.858;4.398;2024-01-27T14:18:39;7.20;99.90
40454;DHT22;26160;51.858;4.398;2024-01-27T14:21:07;7.20;99.90
40454;DHT22;26160;51.858;4.398;2024-01-27T14:23:34;7.20;99.90
40454;DHT22;26160;51.858;4.398;2024-01-27T14:26:01;7.20;99.90
40454;DHT22;26160;51.858;4.398;2024-01-27T14:28:27;7.20;99.90
40454;DHT22;26160;51.858;4.398;2024-01-27T14:30:53;7.30;99.90
40454;DHT22;26160;51.858;4.398;2024-01-27T14:33:19;7.30;99.90
40454;DHT22;26160;51.858;4.398;2024-01-27T14:35:47;7.30;99.90
40454;DHT22;26160;51.858;4.398;2024-01-27T14:38:22;7.30;99.90
40454;DHT22;26160;51.858;4.398;2024-01-27T14:40:51;7.40;99.90
40454;DHT22;26160;51.858;4.398;2024-01-27T14:43:18;7.30;99.90
40454;DHT22;26160;51.858;4.398;2024-01-27T14:45:46;7.30;99.90
40454;DHT22;26160;51.858;4.398;2024-01-27T14:48:12;7.40;99.90
40454;DHT22;26160;51.858;4.398;2024-01-27T14:50:38;7.40;99.90
40454;DHT22;26160;51.858;4.398;2024-01-27T14:53:04;7.40;99.90
40454;DHT22;26160;51.858;4.398;2024-01-27T14:55:31;7.30;99.90
40454;DHT22;26160;51.858;4.398;2024-01-27T14:57:59;7.30;99.90
40454;DHT22;26160;51.858;4.398;2024-01-27T15:00:25;7.30;99.90
40454;DHT22;26160;51.858;4.398;2024-01-27T15:02:52;7.30;99.90
40454;DHT22;26160;51.858;4.398;2024-01-27T15:05:18;7.40;99.90
40454;DHT22;26160;51.858;4.398;2024-01-27T15:07:45;7.20;99.90
40454;DHT22;26160;51.858;4.398;2024-01-27T15:10:12;7.20;99.90
40454;DHT22;26160;51.858;4.398;2024-01-27T15:12:38;7.10;99.90
40454;DHT22;26160;51.858;4.398;2024-01-27T15:15:05;7.10;99.90
40454;DHT22;26160;51.858;4.398;2024-01-27T15:17:32;7.10;99.90
40454;DHT22;26160;51.858;4.398;2024-01-27T15:23:28;7.00;99.90
40454;DHT22;26160;51.858;4.398;2024-01-27T15:25:55;7.00;99.90
40454;DHT22;26160;51.858;4.398;2024-01-27T15:28:26;6.90;99.90
40454;DHT22;26160;51.858;4.398;2024-01-27T15:30:54;6.90;99.90
40454;DHT22;26160;51.858;4.398;2024-01-27T15:33:24;6.90;99.90
40454;DHT22;26160;51.858;4.398;2024-01-27T15:35:58;6.80;99.90
40454;DHT22;26160;51.858;4.398;2024-01-27T15:38:25;6.70;99.90
40454;DHT22;26160;51.858;4.398;2024-01-27T15:40:52;6.80;99.90
40454;DHT22;26160;51.858;4.398;2024-01-27T15:43:33;6.70;99.90
40454;DHT22;26160;51.858;4.398;2024-01-27T15:46:07;6.60;99.90
40454;DHT22;26160;51.858;4.398;2024-01-27T15:48:42;6.60;99.90
40454;DHT22;26160;51.858;4.398;2024-01-27T15:51:19;6.60;99.90
40454;DHT22;26160;51.858;4.398;2024-01-27T15:53:51;6.60;99.90
40454;DHT22;26160;51.858;4.398;2024-01-27T15:56:21;6.50;99.90